• Join FlightAware (Why Join?)
  • Login
  • US Flag 
03:08AM EST


 

Airport Tracker/Info


-or-


 

Live Flight TrackerFlight Track Log ✈ SKW6423 ✈ 29-Apr-2013 ✈ KDEN - KTUS

Flight Track Log - Related Links

Times and Time Zones

All times are in EDT time to prevent confusion due to time zone crossing. See the SKW6423 flight status page for this flight to view local times or setup timezone preferences in your user account.

Time Position Orientation Groundspeed Altitude Reporting Facility
EDT Latitude Longitude Course Direction KTS MPH feet Rate Location/Type
12:16AM 39.3446 -105.1423 215° Southwest  Level Estimated
12:17AM 39.2583 -105.2199 215° Southwest  Level Estimated
12:18AM 39.1718 -105.2972 215° Southwest  Level Estimated
12:19AM 39.0854 -105.3743 215° Southwest  Level Estimated
12:20AM 38.9989 -105.4513 215° Southwest  Level Estimated
12:21AM 38.9123 -105.5280 215° Southwest  Level Estimated
12:22AM 38.8257 -105.6046 215° Southwest  Level Estimated
12:23AM 38.7391 -105.6810 215° Southwest  Level Estimated
12:24AM 38.6523 -105.7572 214° Southwest  Level Estimated
12:25AM 38.5656 -105.8332 214° Southwest  Level Estimated
12:26AM 38.4788 -105.9090 214° Southwest  Level Estimated
12:27AM 38.3919 -105.9847 214° Southwest  Level Estimated
12:28AM 38.3050 -106.0602 214° Southwest  Level Estimated
12:29AM 38.2180 -106.1355 214° Southwest  Level Estimated
12:30AM 38.1311 -106.2106 214° Southwest  Level Estimated
12:31AM 38.0440 -106.2855 214° Southwest  Level Estimated
12:32AM 37.9569 -106.3603 214° Southwest  Level Estimated
12:33AM 37.8698 -106.4348 214° Southwest  Level Estimated
12:34AM 37.7826 -106.5092 214° Southwest  Level Estimated
12:35AM 37.6953 -106.5835 214° Southwest  Level Estimated
12:36AM 37.6081 -106.6575 214° Southwest  Level Estimated
12:37AM 37.5207 -106.7314 214° Southwest  Level Estimated
12:38AM 37.4333 -106.8051 214° Southwest  Level Estimated
12:39AM 37.3459 -106.8786 214° Southwest  Level Estimated
12:40AM 37.2584 -106.9520 214° Southwest  Level Estimated
12:41AM 37.1709 -107.0252 214° Southwest  Level Estimated
12:42AM 37.0834 -107.0982 214° Southwest  Level Estimated
12:43AM 36.9958 -107.1710 214° Southwest  Level Estimated
12:44AM 36.9081 -107.2437 214° Southwest  Level Estimated
12:45AM 36.8204 -107.3162 214° Southwest  Level Estimated
12:46AM 36.7327 -107.3886 213° Southwest  Level Estimated
12:47AM 36.6449 -107.4608 213° Southwest  Level Estimated
12:48AM 36.5571 -107.5328 213° Southwest  Level Estimated
12:49AM 36.4692 -107.6047 213° Southwest  Level Estimated
12:50AM 36.3813 -107.6764 213° Southwest  Level Estimated
12:51AM 36.2934 -107.7479 213° Southwest  Level Estimated
12:52AM 36.2054 -107.8193 213° Southwest  Level Estimated
12:53AM 36.1174 -107.8905 213° Southwest  Level Estimated
12:54AM 36.0293 -107.9615 213° Southwest  Level Estimated
12:55AM 35.9412 -108.0324 213° Southwest  Level Estimated
12:56AM 35.8530 -108.1031 213° Southwest  Level Estimated
12:57AM 35.7648 -108.1737 213° Southwest  Level Estimated
12:58AM 35.6766 -108.2441 213° Southwest  Level Estimated
12:59AM 35.5883 -108.3144 213° Southwest  Level Estimated
01:00AM 35.5000 -108.3845 213° Southwest  Level Estimated
01:01AM 35.4116 -108.4545 213° Southwest  Level Estimated
01:02AM 35.3232 -108.5243 213° Southwest  Level Estimated
01:03AM 35.2347 -108.5939 213° Southwest  Level Estimated
01:04AM 35.1462 -108.6635 213° Southwest  Level Estimated
01:05AM 35.0577 -108.7328 213° Southwest  Level Estimated
01:06AM 34.9692 -108.8020 213° Southwest  Level Estimated
01:07AM 34.8806 -108.8710 213° Southwest  Level Estimated
01:08AM 34.7919 -108.9399 213° Southwest  Level Estimated
01:09AM 34.7032 -109.0087 213° Southwest  Level Estimated
01:10AM 34.6145 -109.0773 212° Southwest  Level Estimated
01:11AM 34.5257 -109.1458 212° Southwest  Level Estimated
01:12AM 34.4370 -109.2141 212° Southwest  Level Estimated
01:13AM 34.3481 -109.2822 212° Southwest  Level Estimated
01:14AM 34.2593 -109.3503 212° Southwest  Level Estimated
01:15AM 34.1703 -109.4182 212° Southwest  Level Estimated
01:16AM 34.0814 -109.4859 212° Southwest  Level Estimated
01:17AM 33.9924 -109.5535 212° Southwest  Level Estimated
01:18AM 33.9034 -109.6209 212° Southwest  Level Estimated
01:19AM 33.8143 -109.6883 212° Southwest  Level Estimated
01:20AM 33.7252 -109.7554 212° Southwest  Level Estimated
01:21AM 33.6361 -109.8225 212° Southwest  Level Estimated
01:22AM 33.5469 -109.8894 212° Southwest  Level Estimated
01:23AM 33.4577 -109.9561 212° Southwest  Level Estimated
01:24AM 33.3685 -110.0227 212° Southwest  Level Estimated
01:25AM 33.2792 -110.0892 212° Southwest  Level Estimated
01:26AM 33.1899 -110.1556 212° Southwest  Level Estimated
01:27AM 33.1006 -110.2218 212° Southwest  Level Estimated
01:28AM 33.0112 -110.2879 212° Southwest  Level Estimated
01:29AM 32.9218 -110.3538 212° Southwest  Level Estimated
01:30AM 32.8323 -110.4196 212° Southwest  Level Estimated
01:31AM 32.7429 -110.4853 212° Southwest  Level Estimated
01:32AM 32.6533 -110.5508 212° Southwest  Level Estimated
01:33AM 32.5638 -110.6163 212° Southwest  Level Estimated
01:34AM 32.4742 -110.6816 212° Southwest  Level Estimated
01:35AM 32.3846 -110.7467 212° Southwest  Level Estimated
01:36AM 32.2949 -110.8117 212° Southwest  Level Estimated
01:37AM 32.2052 -110.8766 211° Southwest  Level Estimated
01:38AM 32.1161 -110.9410 211° Southwest  Level Estimated
01:39AM 32.1161 -110.9410 157° South  Level Estimated
01:40AM 32.1161 -110.9410 157° South  Level Estimated
01:41AM 32.1161 -110.9410 157° South  Level Estimated
01:42AM 32.1161 -110.9410 157° South  Level Estimated
01:43AM 32.1161 -110.9410 157° South  Level Estimated
01:44AM 32.1161 -110.9410 157° South  Level Estimated
01:45AM 32.1161 -110.9410 157° South  Level Estimated
01:46AM 32.1161 -110.9410 157° South  Level Estimated
01:47AM 32.1161 -110.9410 157° South  Level Estimated
01:48AM 32.1161 -110.9410 157° South  Level Estimated
01:49AM 32.1161 -110.9410 157° South  Level Estimated
01:50AM 32.1161 -110.9410 157° South  Level Estimated
01:51AM 32.1161 -110.9410 157° South  Level Estimated
01:52AM 32.1161 -110.9410 157° South  Level Estimated
01:53AM 32.1161 -110.9410 157° South  Level Estimated
01:54AM 32.1161 -110.9410 157° South  Level Estimated